Impacts TAF Board
For situational awareness. Not to be used for flight planning purposes.
IDs:

KBOS - Boston/Logan Intl, MA, US

Issued at 2108 UTC 19 Jan 2019
Updated at 2310 UTC 19 Jan 2019
Potential Impact None Slight Moderate High
Time2254Z 20/00Z 20/01Z 20/02Z 20/03Z 20/04Z 20/05Z 20/06Z 20/07Z 20/08Z 20/09Z 20/10Z 20/11Z 20/12Z>>
Type OBS PRVL PRVL PRVL PRVL PRVL PRVL PRVL PRVL PRVL PRVL PRVL PRVL PRVL
VIS 2 6 1 1 1 1 1 1 1 1 1 2 2 2
CIG 15 15 8 8 8 8 8 8 8 8 8 3 3 3
Cover OVC OVC OVC OVC OVC OVC OVC OVC OVC OVC OVC OVC OVC OVC
FltCat IFR MVFR IFR IFR IFR IFR IFR IFR IFR IFR IFR LIFR LIFR LIFR
WX -SN -SN -SN -SN -SN -SN -SN -SN -SN -SN -SN +RA BR +RA BR +RA BR
WDir 70 70 90 90 90 90 90 90 90 90 90 90 90 90
WSpd 12 12 13 13 13 13 13 13 13 13 13 15 15 15
WGst -- -- 24 24 24 24 24 24 24 24 24 22 22 22
Raw TAF
KBOS 192108Z 1921/2024 07008KT 2SM -SN OVC020
  FM192300 07012KT 6SM -SN OVC015
  FM200100 09013G24KT 1SM -SN OVC008
  FM201000 09015G22KT 2SM +RA BR OVC003 WS020/17040KT
  FM202000 33014G21KT 6SM -FZRA OVC010


Raw METAR
KBOS 192254Z 07012KT 2SM -SN SCT011 BKN015 OVC021 M01/M04 A3027 RMK AO2 SLP249 P0002 T10111039
KBOS 192220Z 07010KT 2SM -SN BR BKN015 OVC021 M01/M03 A3028 RMK AO2 P0000 T10111033
KBOS 192154Z 07010KT 3SM -SN SCT016 OVC021 M01/M04 A3028 RMK AO2 SLP252 P0001 T10061044
KBOS 192135Z 08010KT 3SM -SN SCT017 OVC023 M01/M04 A3027 RMK AO2 P0001 T10061044
KBOS 192124Z 08009KT 2SM -SN BKN017 OVC023 M01/M04 A3027 RMK AO2 P0001 T10061044
KBOS 192054Z 07008KT 1 1/2SM -SN OVC021 M01/M05 A3026 RMK AO2 SLP247 P0000 60000 T10061050 55006

METAR Board
Radar Display
Forecast Discussion
For situational awareness. Not to be used for flight planning purposes.